.
WxDataArchive / Data Records for 2015-04-14
2015-04-13 April 2015 2015-04-15

Data Records for Tuesday, 14 April 2015

Time	Temp	Chill	HIndex	Humid	Dewpt	 Wind 	HiWind	WindDir	Rain 	Barom
-----	----	-----	------	-----	-----	------	------	-------	-----	-----
00:00	47.9	47.9	47.9	66	37.1	0	0	---	0.00	30.123 
00:05	47.9	47.9	47.9	67	37.5	0	0	---	0.00	30.123 
00:10	47.7	47.7	47.7	69	38.0	0	0	---	0.00	30.123 
00:15	47.6	47.6	47.6	69	37.9	0	0	---	0.00	30.132 
00:20	47.6	47.6	47.6	70	38.3	0	0	---	0.00	30.132 
00:25	47.3	47.3	47.3	70	38.0	0	0	---	0.00	30.132 
00:30	47.3	47.3	47.3	71	38.4	0	0	---	0.00	30.136 
00:35	47.1	47.1	47.1	71	38.2	0	0	---	0.00	30.136 
00:40	47.0	47.0	47.0	71	38.1	0	0	---	0.00	30.136 
00:45	47.0	47.0	47.0	72	38.4	0	0	---	0.00	30.139 
00:50	47.0	47.0	47.0	74	39.1	0	0	---	0.00	30.139 
00:55	47.0	47.0	47.0	73	38.8	0	0	---	0.00	30.139 
01:00	46.8	46.8	46.8	73	38.6	0	0	---	0.00	30.145 
01:05	46.8	46.8	46.8	73	38.6	0	0	---	0.00	30.145 
01:10	46.7	46.7	46.7	72	38.2	0	0	---	0.00	30.145 
01:15	46.5	46.5	46.5	72	38.0	0	0	---	0.00	30.147 
01:20	46.5	46.5	46.5	73	38.3	0	0	---	0.00	30.147 
01:25	46.4	46.4	46.4	73	38.2	0	0	---	0.00	30.147 
01:30	46.4	46.4	46.4	73	38.2	0	0	---	0.00	30.153 
01:35	46.2	46.2	46.2	73	38.0	0	0	---	0.00	30.153 
01:40	46.1	46.1	46.1	74	38.3	0	0	---	0.00	30.153 
01:45	46.0	46.0	46.0	74	38.2	0	0	---	0.00	30.153 
01:50	45.8	45.8	45.8	74	38.0	0	0	---	0.00	30.153 
01:55	45.7	45.7	45.7	75	38.2	0	0	---	0.00	30.153 
02:00	45.5	45.5	45.5	75	38.0	0	0	---	0.00	30.155 
02:05	45.4	45.4	45.4	76	38.3	0	0	---	0.00	30.155 
02:10	45.1	45.1	45.1	77	38.3	0	0	---	0.00	30.155 
02:15	44.9	44.9	44.9	78	38.5	0	0	---	0.00	30.150 
02:20	44.8	44.8	44.8	79	38.7	0	0	---	0.00	30.150 
02:25	44.6	44.6	44.6	79	38.5	0	0	---	0.00	30.150 
02:30	44.5	44.5	44.5	80	38.7	0	0	---	0.00	30.154 
02:35	44.2	44.2	44.2	80	38.4	0	0	---	0.00	30.154 
02:40	44.1	44.1	44.1	81	38.6	0	0	---	0.00	30.154 
02:45	43.9	43.9	43.9	81	38.5	0	0	---	0.00	30.148 
02:50	43.6	43.6	43.6	81	38.2	0	0	---	0.00	30.148 
02:55	43.6	43.6	43.6	81	38.2	0	0	---	0.00	30.148 
03:00	43.5	43.5	43.5	81	38.1	0	0	---	0.00	30.153 
03:05	43.3	43.3	43.3	81	37.9	0	0	---	0.00	30.153 
03:10	43.2	43.2	43.2	81	37.8	0	0	---	0.00	30.153 
03:15	43.1	43.1	43.1	81	37.7	0	0	---	0.00	30.156 
03:20	42.9	42.9	42.9	81	37.5	0	0	---	0.00	30.156 
03:25	42.9	42.9	42.9	81	37.5	0	0	---	0.00	30.156 
03:30	42.8	42.8	42.8	81	37.4	0	0	---	0.00	30.153 
03:35	42.8	42.8	42.8	81	37.4	0	0	---	0.00	30.153 
03:40	42.6	42.6	42.6	81	37.2	0	0	---	0.00	30.153 
03:45	42.5	42.5	42.5	81	37.1	0	0	---	0.00	30.156 
03:50	42.5	42.5	42.5	82	37.4	0	0	---	0.00	30.156 
03:55	42.5	42.5	42.5	82	37.4	0	0	---	0.00	30.156 
04:00	42.5	42.5	42.5	83	37.7	0	0	---	0.00	30.156 
04:05	42.5	42.5	42.5	83	37.7	0	0	---	0.00	30.156 
04:10	42.5	42.5	42.5	83	37.7	0	1	292	0.00	30.156 
04:15	42.6	42.6	42.6	83	37.8	0	1	292	0.00	30.157 
04:20	42.6	42.6	42.6	83	37.8	0	0	---	0.00	30.157 
04:25	42.8	42.8	42.8	83	38.0	0	0	---	0.00	30.157 
04:30	42.8	42.8	42.8	84	38.3	0	0	---	0.00	30.158 
04:35	42.8	42.8	42.8	83	38.0	0	0	---	0.00	30.158 
04:40	42.9	42.9	42.9	83	38.1	0	1	292	0.00	30.158 
04:45	42.9	42.9	42.9	83	38.1	0	0	---	0.00	30.160 
04:50	42.9	42.9	42.9	83	38.1	0	0	---	0.00	30.160 
04:55	42.9	42.9	42.9	83	38.1	0	0	---	0.00	30.160 
05:00	42.9	42.9	42.9	82	37.8	0	0	---	0.00	30.162 
05:05	42.9	42.9	42.9	82	37.8	0	0	---	0.00	30.162 
05:10	42.9	42.9	42.9	82	37.8	0	0	---	0.00	30.162 
05:15	42.8	42.8	42.8	82	37.7	0	0	---	0.00	30.171 
05:20	42.6	42.6	42.6	82	37.5	0	0	---	0.00	30.171 
05:25	42.5	42.5	42.5	82	37.4	0	0	---	0.00	30.171 
05:30	42.3	42.3	42.3	82	37.2	0	0	---	0.00	30.172 
05:35	42.2	42.2	42.2	82	37.1	0	0	---	0.00	30.172 
05:40	42.1	42.1	42.1	82	37.0	0	0	---	0.00	30.172 
05:45	41.9	41.9	41.9	82	36.8	0	0	---	0.00	30.170 
05:50	41.8	41.8	41.8	82	36.7	0	0	---	0.00	30.170 
05:55	41.6	41.6	41.6	82	36.5	0	0	---	0.00	30.170 
06:00	41.6	41.6	41.6	82	36.5	0	0	---	0.00	30.176 
06:05	41.3	41.3	41.3	81	35.9	0	0	---	0.00	30.176 
06:10	41.2	41.2	41.2	81	35.8	0	0	---	0.00	30.176 
06:15	41.1	41.1	41.1	82	36.0	0	0	---	0.00	30.184 
06:20	41.1	41.1	41.1	82	36.0	0	0	---	0.00	30.184 
06:25	40.9	40.9	40.9	82	35.8	0	0	---	0.00	30.184 
06:30	40.9	40.9	40.9	82	35.8	0	0	---	0.00	30.184 
06:35	40.8	40.8	40.8	82	35.7	0	0	---	0.00	30.184 
06:40	40.6	40.6	40.6	82	35.5	0	0	---	0.00	30.184 
06:45	40.6	40.6	40.6	83	35.8	0	0	---	0.00	30.183 
06:50	40.6	40.6	40.6	83	35.8	0	0	---	0.00	30.183 
06:55	40.6	40.6	40.6	83	35.8	0	0	---	0.00	30.183 
07:00	40.8	40.8	40.8	83	36.0	0	0	---	0.00	30.181 
07:05	40.9	40.9	40.9	83	36.1	0	0	---	0.00	30.181 
07:10	41.1	41.1	41.1	82	36.0	0	0	---	0.00	30.181 
07:15	41.2	41.2	41.2	81	35.8	0	0	---	0.00	30.191 
07:20	41.3	41.3	41.3	79	35.3	0	0	---	0.00	30.191 
07:25	41.8	41.8	41.8	75	34.5	0	0	---	0.00	30.191 
07:30	42.5	42.5	42.5	73	34.5	0	1	292	0.00	30.189 
07:35	43.2	43.2	43.2	70	34.1	0	0	---	0.00	30.189 
07:40	43.8	43.8	43.8	69	34.3	0	0	---	0.00	30.189 
07:45	44.2	44.2	44.2	67	33.9	0	0	---	0.00	30.190 
07:50	44.6	44.6	44.6	65	33.6	0	0	---	0.00	30.190 
07:55	45.1	45.1	45.1	63	33.3	0	0	---	0.00	30.190 
08:00	45.7	45.7	45.7	62	33.4	0	0	---	0.00	30.193 
08:05	46.2	46.2	46.2	61	33.5	0	0	---	0.00	30.193 
08:10	46.8	46.8	46.8	60	33.7	0	1	292	0.00	30.193 
08:15	47.4	47.4	47.4	60	34.2	0	0	---	0.00	30.207 
08:20	47.9	47.9	47.9	58	33.8	0	0	---	0.00	30.207 
08:25	48.3	48.3	48.3	58	34.2	0	1	292	0.00	30.207 
08:30	48.6	48.6	48.6	56	33.6	0	1	292	0.00	30.210 
08:35	49.1	49.1	49.1	56	34.1	0	1	292	0.00	30.210 
08:40	49.4	49.4	49.4	54	33.5	0	1	292	0.00	30.210 
08:45	49.6	49.6	49.6	54	33.6	0	1	292	0.00	30.214 
08:50	49.8	49.8	49.8	54	33.8	0	1	292	0.00	30.214 
08:55	50.1	50.1	50.1	55	34.6	0	1	292	0.00	30.214 
09:00	50.2	50.2	50.2	54	34.2	0	0	---	0.00	30.216 
09:05	50.4	50.4	50.4	52	33.4	0	1	292	0.00	30.216 
09:10	50.7	50.7	50.7	53	34.2	0	1	292	0.00	30.216 
09:15	51.0	51.0	51.0	53	34.5	0	1	292	0.00	30.218 
09:20	51.1	51.1	51.1	51	33.6	0	1	292	0.00	30.218 
09:25	51.4	51.4	51.4	50	33.4	0	3	22	0.00	30.218 
09:30	51.9	51.9	51.9	50	33.9	0	1	22	0.00	30.222 
09:35	52.3	52.3	52.3	49	33.7	0	3	22	0.00	30.222 
09:40	52.6	52.6	52.6	47	32.9	0	3	90	0.00	30.222 
09:45	53.2	53.2	53.2	47	33.5	1	5	90	0.00	30.224 
09:50	53.8	53.8	53.8	48	34.6	0	3	68	0.00	30.224 
09:55	54.2	54.2	54.2	45	33.3	1	3	68	0.00	30.224 
10:00	54.7	54.7	54.7	46	34.3	0	2	68	0.00	30.224 
10:05	55.0	55.0	55.0	46	34.6	1	3	68	0.00	30.224 
10:10	55.3	55.3	55.3	45	34.3	0	2	45	0.00	30.224 
10:15	55.4	55.4	55.4	45	34.4	0	3	45	0.00	30.227 
10:20	55.7	55.7	55.7	46	35.2	0	4	90	0.00	30.227 
10:25	55.9	55.9	55.9	44	34.3	1	5	112	0.00	30.227 
10:30	56.0	56.0	56.0	43	33.8	1	3	112	0.00	30.234 
10:35	56.2	56.2	56.2	43	34.0	1	3	45	0.00	30.234 
10:40	56.3	56.3	56.3	44	34.7	0	4	90	0.00	30.234 
10:45	56.6	56.6	56.6	42	33.8	1	4	90	0.00	30.238 
10:50	56.9	56.9	56.9	42	34.0	0	3	90	0.00	30.238 
10:55	57.3	57.3	57.3	41	33.8	0	2	90	0.00	30.238 
11:00	57.6	57.6	57.6	41	34.1	0	2	90	0.00	30.237 
11:05	57.8	57.8	57.8	40	33.6	2	7	112	0.00	30.237 
11:10	58.0	58.0	58.0	39	33.2	1	3	112	0.00	30.237 
11:15	58.1	58.1	58.1	40	33.9	1	5	112	0.00	30.244 
11:20	58.4	58.4	58.4	38	32.9	2	9	112	0.00	30.244 
11:25	59.0	59.0	59.0	38	33.4	1	4	112	0.00	30.244 
11:30	59.5	59.5	59.5	38	33.9	2	5	90	0.00	30.249 
11:35	59.5	59.5	59.5	36	32.5	3	7	112	0.00	30.249 
11:40	59.5	59.5	59.5	38	33.9	1	5	90	0.00	30.249 
11:45	59.5	59.5	59.5	36	32.5	2	10	90	0.00	30.245 
11:50	59.3	59.3	59.3	33	30.2	2	10	112	0.00	30.245 
11:55	59.5	59.5	59.5	33	30.4	2	6	68	0.00	30.245 
12:00	59.5	59.5	59.5	31	28.8	4	9	112	0.00	30.245 
12:05	59.5	59.5	59.5	32	29.6	3	8	90	0.00	30.245 
12:10	59.5	59.5	59.5	31	28.8	3	7	112	0.00	30.245 
12:15	59.5	59.5	59.5	30	28.0	1	5	112	0.00	30.241 
12:20	59.5	59.5	59.5	28	26.4	4	12	112	0.00	30.241 
12:25	59.5	59.5	59.5	29	27.2	1	5	112	0.00	30.241 
12:30	59.6	59.6	59.6	28	26.5	4	7	112	0.00	30.238 
12:35	59.6	59.6	59.6	28	26.5	3	10	112	0.00	30.238 
12:40	59.8	59.8	59.8	27	25.8	2	11	112	0.00	30.238 
12:45	60.1	60.1	60.1	27	26.0	3	7	112	0.00	30.237 
12:50	60.4	60.4	60.4	27	26.3	3	9	112	0.00	30.237 
12:55	60.9	60.9	60.9	27	26.7	4	11	112	0.00	30.237 
13:00	61.0	61.0	61.0	26	25.9	2	5	90	0.00	30.236 
13:05	61.0	61.0	61.0	25	24.9	4	10	112	0.00	30.236 
13:10	61.0	61.0	61.0	26	25.9	3	10	90	0.00	30.236 
13:15	61.0	61.0	61.0	26	25.9	4	7	90	0.00	30.234 
13:20	61.0	61.0	61.0	26	25.9	4	11	112	0.00	30.234 
13:25	61.5	61.5	61.5	27	27.2	3	10	90	0.00	30.234 
13:30	61.8	61.8	61.8	25	25.6	3	10	112	0.00	30.230 
13:35	62.3	62.3	62.3	24	25.1	4	10	90	0.00	30.230 
13:40	62.4	62.4	62.4	25	26.1	3	10	90	0.00	30.230 
13:45	62.4	62.4	62.4	27	28.0	3	7	90	0.00	30.223 
13:50	62.4	62.4	62.4	25	26.1	2	5	90	0.00	30.223 
13:55	62.6	62.6	62.6	26	27.2	1	4	112	0.00	30.223 
14:00	62.6	62.6	62.6	27	28.2	3	6	112	0.00	30.221 
14:05	62.4	62.4	62.4	26	27.1	3	7	90	0.00	30.221 
14:10	62.0	62.0	62.0	26	26.7	3	5	90	0.00	30.221 
14:15	62.1	62.1	62.1	27	27.7	1	5	90	0.00	30.215 
14:20	62.4	62.4	62.4	26	27.1	2	7	90	0.00	30.215 
14:25	62.3	62.3	62.3	27	27.9	3	8	112	0.00	30.215 
14:30	62.1	62.1	62.1	27	27.7	3	9	90	0.00	30.210 
14:35	62.1	62.1	62.1	28	28.6	3	7	90	0.00	30.210 
14:40	62.0	62.0	62.0	25	25.8	2	5	90	0.00	30.210 
14:45	61.8	61.8	61.8	25	25.6	2	6	90	0.00	30.206 
14:50	61.8	61.8	61.8	26	26.6	3	6	90	0.00	30.206 
14:55	62.0	62.0	62.0	25	25.8	4	7	90	0.00	30.206 
15:00	61.8	61.8	61.8	25	25.6	3	7	90	0.00	30.203 
15:05	61.8	61.8	61.8	25	25.6	2	5	90	0.00	30.203 
15:10	62.0	62.0	62.0	25	25.8	2	5	90	0.00	30.203 
15:15	62.0	62.0	62.0	28	28.5	3	6	112	0.00	30.193 
15:20	62.0	62.0	62.0	26	26.7	2	5	112	0.00	30.193 
15:25	62.1	62.1	62.1	27	27.7	1	5	90	0.00	30.193 
15:30	62.1	62.1	62.1	26	26.8	2	5	90	0.00	30.188 
15:35	62.3	62.3	62.3	27	27.9	1	3	90	0.00	30.188 
15:40	62.1	62.1	62.1	28	28.6	3	6	90	0.00	30.188 
15:45	62.1	62.1	62.1	26	26.8	2	6	112	0.00	30.178 
15:50	62.1	62.1	62.1	26	26.8	2	6	90	0.00	30.178 
15:55	61.8	61.8	61.8	25	25.6	3	7	90	0.00	30.178 
16:00	61.8	61.8	61.8	28	28.4	3	7	90	0.00	30.177 
16:05	61.8	61.8	61.8	28	28.4	3	7	90	0.00	30.177 
16:10	62.0	62.0	62.0	26	26.7	2	4	112	0.00	30.177 
16:15	62.0	62.0	62.0	25	25.8	3	7	112	0.00	30.176 
16:20	62.0	62.0	62.0	27	27.6	3	7	68	0.00	30.176 
16:25	62.4	62.4	62.4	28	28.9	2	4	90	0.00	30.176 
16:30	62.7	62.7	62.7	27	28.2	1	5	90	0.00	30.170 
16:35	63.1	63.1	63.1	27	28.6	2	5	90	0.00	30.170 
16:40	63.1	63.1	63.1	29	30.3	2	5	90	0.00	30.170 
16:45	63.2	63.2	63.2	27	28.7	2	7	90	0.00	30.168 
16:50	62.9	62.9	62.9	27	28.4	3	5	90	0.00	30.168 
16:55	62.4	62.4	62.4	26	27.1	2	6	90	0.00	30.168 
17:00	62.1	62.1	62.1	27	27.7	1	4	90	0.00	30.172 
17:05	62.1	62.1	62.1	28	28.6	2	4	112	0.00	30.172 
17:10	62.0	62.0	62.0	27	27.6	3	7	112	0.00	30.172 
17:15	62.0	62.0	62.0	28	28.5	1	5	112	0.00	30.168 
17:20	62.0	62.0	62.0	26	26.7	0	1	112	0.00	30.168 
17:25	62.3	62.3	62.3	27	27.9	2	6	112	0.00	30.168 
17:30	62.4	62.4	62.4	29	29.7	1	5	68	0.00	30.165 
17:35	62.6	62.6	62.6	28	29.0	2	4	68	0.00	30.165 
17:40	62.6	62.6	62.6	27	28.2	1	4	90	0.00	30.165 
17:45	62.6	62.6	62.6	26	27.2	1	4	135	0.00	30.175 
17:50	62.4	62.4	62.4	27	28.0	0	3	135	0.00	30.175 
17:55	62.3	62.3	62.3	28	28.8	1	3	135	0.00	30.175 
18:00	62.3	62.3	62.3	30	30.5	0	3	135	0.00	30.172 
18:05	62.1	62.1	62.1	27	27.7	0	3	135	0.00	30.172 
18:10	62.1	62.1	62.1	28	28.6	0	2	135	0.00	30.172 
18:15	62.1	62.1	62.1	26	26.8	1	3	135	0.00	30.182 
18:20	62.0	62.0	62.0	27	27.6	1	2	135	0.00	30.182 
18:25	61.8	61.8	61.8	28	28.4	1	4	135	0.00	30.182 
18:30	61.6	61.6	61.6	28	28.2	0	2	135	0.00	30.191 
18:35	61.6	61.6	61.6	28	28.2	0	2	135	0.00	30.191 
18:40	61.6	61.6	61.6	28	28.2	0	3	135	0.00	30.191 
18:45	61.5	61.5	61.5	28	28.1	1	2	135	0.00	30.189 
18:50	61.5	61.5	61.5	28	28.1	1	4	112	0.00	30.189 
18:55	61.3	61.3	61.3	27	27.0	1	3	112	0.00	30.189 
19:00	61.2	61.2	61.2	28	27.8	1	4	112	0.00	30.179 
19:05	61.0	61.0	61.0	29	28.5	1	3	112	0.00	30.179 
19:10	61.0	61.0	61.0	28	27.7	0	1	112	0.00	30.179 
19:15	60.9	60.9	60.9	28	27.6	0	2	112	0.00	30.184 
19:20	60.7	60.7	60.7	31	29.9	0	1	112	0.00	30.184 
19:25	60.5	60.5	60.5	31	29.7	0	2	112	0.00	30.184 
19:30	60.2	60.2	60.2	30	28.7	0	1	112	0.00	30.189 
19:35	59.9	59.9	59.9	31	29.2	0	1	112	0.00	30.189 
19:40	59.6	59.6	59.6	30	28.1	0	1	112	0.00	30.189 
19:45	59.3	59.3	59.3	31	28.7	0	1	338	0.00	30.177 
19:50	59.0	59.0	59.0	31	28.4	0	0	---	0.00	30.177 
19:55	58.9	58.9	58.9	33	29.9	0	0	---	0.00	30.177 
20:00	58.4	58.4	58.4	33	29.4	0	0	---	0.00	30.193 
20:05	58.1	58.1	58.1	34	29.9	0	0	---	0.00	30.193 
20:10	57.8	57.8	57.8	35	30.3	0	0	---	0.00	30.193 
20:15	57.3	57.3	57.3	35	29.9	0	0	---	0.00	30.187 
20:20	56.9	56.9	56.9	36	30.2	0	0	---	0.00	30.187 
20:25	56.5	56.5	56.5	36	29.9	0	0	---	0.00	30.187 
20:30	56.0	56.0	56.0	37	30.1	0	0	---	0.00	30.189 
20:35	55.4	55.4	55.4	37	29.6	0	0	---	0.00	30.189 
20:40	55.0	55.0	55.0	39	30.5	0	0	---	0.00	30.189 
20:45	54.5	54.5	54.5	39	30.1	0	0	---	0.00	30.196 
20:50	54.1	54.1	54.1	42	31.5	0	0	---	0.00	30.196 
20:55	53.6	53.6	53.6	42	31.1	0	0	---	0.00	30.196 
21:00	53.1	53.1	53.1	43	31.2	0	0	---	0.00	30.198 
21:05	52.6	52.6	52.6	42	30.2	0	0	---	0.00	30.198 
21:10	52.2	52.2	52.2	43	30.4	0	0	---	0.00	30.198 
21:15	51.9	51.9	51.9	45	31.2	0	0	---	0.00	30.201 
21:20	51.4	51.4	51.4	46	31.3	0	0	---	0.00	30.201 
21:25	51.1	51.1	51.1	46	31.0	0	0	---	0.00	30.201 
21:30	50.8	50.8	50.8	46	30.8	0	0	---	0.00	30.208 
21:35	50.4	50.4	50.4	47	30.9	0	0	---	0.00	30.208 
21:40	50.1	50.1	50.1	48	31.2	0	0	---	0.00	30.208 
21:45	49.8	49.8	49.8	49	31.4	0	0	---	0.00	30.211 
21:50	49.5	49.5	49.5	50	31.6	0	0	---	0.00	30.211 
21:55	49.4	49.4	49.4	50	31.5	0	0	---	0.00	30.211 
22:00	49.1	49.1	49.1	50	31.3	0	0	---	0.00	30.215 
22:05	48.8	48.8	48.8	50	31.0	0	0	---	0.00	30.215 
22:10	48.5	48.5	48.5	51	31.2	0	0	---	0.00	30.215 
22:15	48.3	48.3	48.3	51	31.0	0	0	---	0.00	30.209 
22:20	48.3	48.3	48.3	51	31.0	0	0	---	0.00	30.209 
22:25	48.3	48.3	48.3	52	31.5	0	0	---	0.00	30.209 
22:30	48.2	48.2	48.2	52	31.4	0	0	---	0.00	30.210 
22:35	48.0	48.0	48.0	53	31.7	0	0	---	0.00	30.210 
22:40	47.7	47.7	47.7	54	31.9	0	0	---	0.00	30.210 
22:45	47.6	47.6	47.6	55	32.2	0	0	---	0.00	30.210 
22:50	47.3	47.3	47.3	57	32.8	0	0	---	0.00	30.210 
22:55	47.0	47.0	47.0	58	33.0	0	0	---	0.00	30.210 
23:00	46.7	46.7	46.7	59	33.1	0	0	---	0.00	30.210 
23:05	46.5	46.5	46.5	62	34.2	0	0	---	0.00	30.210 
23:10	46.4	46.4	46.4	63	34.5	0	0	---	0.00	30.210 
23:15	46.2	46.2	46.2	65	35.1	0	0	---	0.00	30.211 
23:20	46.1	46.1	46.1	66	35.4	0	0	---	0.00	30.211 
23:25	46.0	46.0	46.0	66	35.3	0	0	---	0.00	30.211 
23:30	45.7	45.7	45.7	66	35.0	0	0	---	0.00	30.216 
23:35	45.5	45.5	45.5	66	34.8	0	1	338	0.00	30.216 
23:40	45.5	45.5	45.5	65	34.4	0	1	338	0.00	30.216 
23:45	45.5	45.5	45.5	62	33.2	0	1	338	0.00	30.219 
23:50	45.5	45.5	45.5	61	32.8	0	0	---	0.00	30.219 
23:55	45.5	45.5	45.5	62	33.2	0	1	338	0.00	30.219 

CoCoRaHS
IN-AL-39
A2 Web Hosting
Creative Commons License
GoDaddy
search engine by freefind advanced

loaded 2018-11-17 14:14:26 • last modified 2010-11-18 10:43:29
Privacy PolicyDisclaimer
• wx.awcolley.com is powered by PmWiki v.2002016 •
• all content (unless otherwise noted) © 2018 A W Colley